Time;durP1;ratioP1;P1;durP2;ratioP2;P2;SDS_P1;SDS_P2;PMS_P1;PMS_P2;Temp;Humidity;BMP_temperature;BMP_pressure;BME280_temperature;BME280_humidity;BME280_pressure;Samples;Min_cycle;Max_cycle;Signal;HPM_P1;HPM_P2
2023/04/22 00:00:37;;;;;;;10.13;5.97;;;;;;;12.40;100.00;99827.72;5107510;28;20020;-33
2023/04/22 00:03:02;;;;;;;9.77;5.45;;;;;;;12.13;100.00;99811.41;5106873;28;20811;-34
2023/04/22 00:05:28;;;;;;;10.40;6.03;;;;;;;12.36;100.00;99824.75;5107311;28;20118;-34
2023/04/22 00:07:54;;;;;;;9.82;5.78;;;;;;;12.52;100.00;99827.72;5106751;28;20071;-33
2023/04/22 00:10:19;;;;;;;10.23;5.85;;;;;;;12.56;100.00;99828.84;5106844;28;20024;-34
2023/04/22 00:12:45;;;;;;;12.38;6.50;;;;;;;12.28;100.00;99835.81;5106176;28;20545;-34
2023/04/22 00:15:10;;;;;;;8.63;5.68;;;;;;;12.33;100.00;99835.91;5106759;28;20424;-35
2023/04/22 00:17:36;;;;;;;8.02;5.72;;;;;;;11.97;100.00;99829.81;5107035;28;20160;-34
2023/04/22 00:20:02;;;;;;;9.50;5.38;;;;;;;11.73;100.00;99830.81;5106554;28;20439;-35
2023/04/22 00:22:27;;;;;;;11.02;5.85;;;;;;;11.98;100.00;99831.41;5106912;28;20032;-34
2023/04/22 00:24:53;;;;;;;11.23;5.43;;;;;;;12.22;100.00;99831.41;5106525;28;20423;-33
2023/04/22 00:27:18;;;;;;;10.63;5.78;;;;;;;12.22;100.00;99832.22;5106835;28;20440;-34
2023/04/22 00:29:44;;;;;;;10.13;5.60;;;;;;;12.04;100.00;99838.50;5106739;28;20024;-36
2023/04/22 00:32:09;;;;;;;7.07;4.65;;;;;;;11.94;100.00;99834.78;5106661;28;20136;-34
2023/04/22 00:34:35;;;;;;;8.05;5.60;;;;;;;11.73;100.00;99836.13;5106571;28;20055;-34
2023/04/22 00:37:00;;;;;;;9.55;5.75;;;;;;;11.56;100.00;99828.81;5099951;28;20755;-33
2023/04/22 00:39:26;;;;;;;10.20;6.22;;;;;;;11.90;100.00;99839.78;5100122;28;20035;-34
2023/04/22 00:41:52;;;;;;;11.52;6.30;;;;;;;11.82;100.00;99840.91;5106430;28;20097;-33
2023/04/22 00:44:17;;;;;;;10.23;6.07;;;;;;;11.86;100.00;99843.94;5103137;28;20504;-34
2023/04/22 00:46:44;;;;;;;10.85;6.68;;;;;;;11.80;100.00;99837.66;5105452;28;20023;-33
2023/04/22 00:49:10;;;;;;;8.88;5.88;;;;;;;11.65;100.00;99843.47;5106637;27;20030;-34
2023/04/22 00:51:35;;;;;;;9.75;6.25;;;;;;;11.68;100.00;99854.75;5106241;28;20028;-35
2023/04/22 00:54:02;;;;;;;9.63;6.25;;;;;;;11.79;100.00;99843.22;5105904;28;20032;-33
2023/04/22 00:56:30;;;;;;;11.23;6.20;;;;;;;11.45;100.00;99842.97;5105651;28;20080;-34
2023/04/22 00:58:55;;;;;;;;;;;;;;;11.19;100.00;99846.88;5106540;28;20054;-33
2023/04/22 01:01:22;;;;;;;8.82;5.78;;;;;;;11.23;100.00;99851.50;5105906;28;19943;-34
2023/04/22 01:03:48;;;;;;;9.25;6.55;;;;;;;11.50;100.00;99851.09;5105683;28;20114;-36
2023/04/22 01:06:16;;;;;;;10.25;6.65;;;;;;;11.79;100.00;99856.59;5106364;28;20107;-34
2023/04/22 01:08:41;;;;;;;13.48;7.30;;;;;;;11.85;100.00;99855.69;5105365;28;20536;-34
2023/04/22 01:11:07;;;;;;;11.48;7.13;;;;;;;11.97;100.00;99853.84;5105862;28;20046;-34
2023/04/22 01:13:32;;;;;;;12.02;7.18;;;;;;;12.05;100.00;99858.00;5105445;28;20027;-34
2023/04/22 01:15:59;;;;;;;12.10;7.35;;;;;;;11.99;100.00;99853.59;5105623;28;20028;-34
2023/04/22 01:18:25;;;;;;;10.68;7.47;;;;;;;11.87;100.00;99850.94;5105673;28;20027;-32
2023/04/22 01:20:51;;;;;;;10.30;6.90;;;;;;;12.00;100.00;99850.72;5105616;28;20027;-32
2023/04/22 01:23:21;;;;;;;14.52;7.07;;;;;;;11.85;100.00;99824.44;5105639;28;20031;-31
2023/04/22 01:25:47;;;;;;;12.38;7.53;;;;;;;12.08;100.00;99846.06;5104906;28;20023;-33
2023/04/22 01:28:13;;;;;;;11.70;7.47;;;;;;;11.94;100.00;99851.63;5105662;28;20019;-32
2023/04/22 01:30:40;;;;;;;8.43;6.30;;;;;;;11.75;100.00;99845.56;5105478;28;20129;-32
2023/04/22 01:33:06;;;;;;;12.20;7.00;;;;;;;11.76;100.00;99855.19;5105227;28;20035;-32
2023/04/22 01:35:35;;;;;;;11.10;6.50;;;;;;;11.84;100.00;99851.38;5105603;28;20036;-32
2023/04/22 01:38:08;;;;;;;12.80;6.93;;;;;;;11.58;100.00;99855.31;5105467;28;20047;-31
2023/04/22 01:40:34;;;;;;;8.55;5.68;;;;;;;11.53;100.00;99856.00;5104611;28;20032;-32
2023/04/22 01:43:00;;;;;;;9.10;5.90;;;;;;;11.52;100.00;99858.88;5104678;28;20427;-32
2023/04/22 01:45:26;;;;;;;9.75;5.55;;;;;;;11.51;100.00;99852.75;5104820;28;20073;-35
2023/04/22 01:47:52;;;;;;;8.00;5.00;;;;;;;11.27;100.00;99849.22;5105965;28;20023;-31
2023/04/22 01:50:18;;;;;;;7.93;5.53;;;;;;;11.30;100.00;99853.28;5105142;28;20062;-31
2023/04/22 01:52:43;;;;;;;10.18;5.82;;;;;;;11.26;100.00;99844.94;5105852;28;20058;-32
2023/04/22 01:55:09;;;;;;;9.35;6.25;;;;;;;11.31;100.00;99836.22;5106126;28;20031;-31
2023/04/22 01:57:35;;;;;;;11.00;6.88;;;;;;;11.45;100.00;99832.31;5105904;28;20618;-31
2023/04/22 02:00:00;;;;;;;10.45;7.07;;;;;;;11.41;100.00;99852.50;5105702;28;20427;-31
2023/04/22 02:02:26;;;;;;;12.15;6.88;;;;;;;11.43;100.00;99859.22;5105584;28;20420;-31
2023/04/22 02:04:52;;;;;;;10.82;7.30;;;;;;;11.39;100.00;99846.56;5105793;28;20035;-32
2023/04/22 02:07:17;;;;;;;15.05;7.65;;;;;;;11.44;100.00;99852.03;5105627;28;20053;-31
2023/04/22 02:09:43;;;;;;;11.70;7.22;;;;;;;11.11;100.00;99829.31;5105743;28;20020;-32
2023/04/22 02:12:08;;;;;;;10.95;6.45;;;;;;;11.19;100.00;99845.00;5105719;28;20039;-31
2023/04/22 02:14:34;;;;;;;12.20;7.47;;;;;;;11.06;100.00;99842.53;5105881;28;20028;-33
2023/04/22 02:17:01;;;;;;;11.98;7.22;;;;;;;10.84;100.00;99831.56;5105957;28;20059;-32
2023/04/22 02:19:27;;;;;;;10.52;6.80;;;;;;;10.97;100.00;99841.22;5105831;28;20031;-31
2023/04/22 02:21:52;;;;;;;9.93;6.47;;;;;;;10.88;100.00;99834.59;5105934;28;20036;-32
2023/04/22 02:24:18;;;;;;;10.30;7.03;;;;;;;10.95;100.00;99848.66;5105828;28;20027;-31
2023/04/22 02:26:43;;;;;;;9.95;7.38;;;;;;;10.57;100.00;99837.25;5105702;28;20020;-31
2023/04/22 02:29:08;;;;;;;12.63;6.80;;;;;;;10.33;100.00;99846.94;5105524;28;20061;-32
2023/04/22 02:31:34;;;;;;;10.75;6.65;;;;;;;9.95;100.00;99829.31;5105969;28;20127;-32
2023/04/22 02:33:59;;;;;;;9.38;5.32;;;;;;;9.94;100.00;99843.66;5105300;28;20026;-31
2023/04/22 02:36:26;;;;;;;10.07;5.22;;;;;;;9.96;100.00;99840.78;5106476;28;20019;-30
2023/04/22 02:38:52;;;;;;;26.58;5.50;;;;;;;9.98;100.00;99844.84;5109606;28;20050;-31
2023/04/22 02:41:17;;;;;;;41.72;5.82;;;;;;;9.49;100.00;99851.81;5109533;28;20454;-32
2023/04/22 02:43:45;;;;;;;32.65;4.40;;;;;;;9.25;100.00;99846.28;5103819;28;20028;-34
2023/04/22 02:46:11;;;;;;;86.30;7.22;;;;;;;9.41;100.00;99844.09;5106836;27;20556;-34
2023/04/22 02:48:37;;;;;;;51.88;7.13;;;;;;;9.76;100.00;99828.44;5108515;28;20040;-34
2023/04/22 02:51:03;;;;;;;59.80;7.50;;;;;;;10.08;100.00;99854.19;5109226;28;20038;-33
2023/04/22 02:53:29;;;;;;;34.83;6.57;;;;;;;10.16;100.00;99840.56;5109251;28;20031;-34
2023/04/22 02:55:55;;;;;;;56.80;9.50;;;;;;;10.20;100.00;99853.22;5109130;28;20439;-33
2023/04/22 02:58:21;;;;;;;32.42;7.32;;;;;;;10.48;100.00;99848.44;5109015;28;20027;-34
2023/04/22 03:00:46;;;;;;;17.10;8.02;;;;;;;10.42;100.00;99850.97;5109359;28;20136;-34
2023/04/22 03:03:12;;;;;;;11.48;7.28;;;;;;;10.38;100.00;99851.59;5109024;28;20019;-33
2023/04/22 03:05:37;;;;;;;18.63;7.80;;;;;;;10.52;100.00;99841.59;5109196;28;20035;-34
2023/04/22 03:08:03;;;;;;;18.77;8.10;;;;;;;10.56;100.00;99851.63;5108863;28;20051;-34
2023/04/22 03:10:28;;;;;;;46.65;9.27;;;;;;;10.65;100.00;99847.59;5108674;28;20034;-33
2023/04/22 03:12:54;;;;;;;32.70;9.20;;;;;;;10.89;100.00;99841.53;5109055;28;20027;-33
2023/04/22 03:15:20;;;;;;;38.95;9.95;;;;;;;10.77;100.00;99847.66;5108645;28;20051;-34
2023/04/22 03:17:46;;;;;;;67.18;11.63;;;;;;;10.73;100.00;99849.16;5108825;28;20037;-34
2023/04/22 03:20:11;;;;;;;41.92;10.02;;;;;;;10.71;100.00;99848.56;5108505;28;20023;-33
2023/04/22 03:22:37;;;;;;;15.48;8.13;;;;;;;10.20;100.00;99847.09;5108709;28;20115;-34
2023/04/22 03:25:03;;;;;;;14.90;7.25;;;;;;;10.00;100.00;99850.75;5108771;28;20076;-34
2023/04/22 03:27:28;;;;;;;13.27;7.53;;;;;;;9.82;100.00;99850.72;5108840;28;20034;-35
2023/04/22 03:29:54;;;;;;;14.77;8.00;;;;;;;9.44;100.00;99843.69;5108515;28;20027;-33
2023/04/22 03:32:19;;;;;;;13.73;9.10;;;;;;;9.45;100.00;99850.63;5108341;28;20862;-33
2023/04/22 03:34:45;;;;;;;12.77;7.25;;;;;;;9.36;100.00;99850.09;5108442;28;20499;-33
2023/04/22 03:37:10;;;;;;;12.95;7.30;;;;;;;9.42;100.00;99845.75;5108519;28;20035;-35
2023/04/22 03:39:35;;;;;;;16.02;7.13;;;;;;;9.24;100.00;99857.13;5108360;28;20032;-33
2023/04/22 03:42:01;;;;;;;11.82;6.80;;;;;;;9.19;100.00;99851.63;5108432;28;20056;-33
2023/04/22 03:44:26;;;;;;;25.02;7.43;;;;;;;9.35;100.00;99851.09;5108082;28;20024;-34
2023/04/22 03:46:52;;;;;;;17.02;10.00;;;;;;;9.61;100.00;99843.94;5108165;28;20183;-34
2023/04/22 03:49:17;;;;;;;17.33;10.98;;;;;;;9.74;100.00;99859.00;5108023;28;20028;-33
2023/04/22 03:51:42;;;;;;;14.48;8.65;;;;;;;9.84;100.00;99857.47;5108136;28;20016;-33
2023/04/22 03:54:08;;;;;;;13.25;8.20;;;;;;;9.92;100.00;99864.34;5107943;28;20461;-34
2023/04/22 03:56:33;;;;;;;14.75;8.50;;;;;;;9.97;100.00;99869.84;5108025;28;20087;-34
2023/04/22 03:58:59;;;;;;;18.77;9.20;;;;;;;10.20;100.00;99871.88;5108119;28;20028;-34
2023/04/22 04:01:24;;;;;;;17.40;9.35;;;;;;;10.25;100.00;99864.00;5108169;28;20027;-34
2023/04/22 04:03:50;;;;;;;13.00;7.32;;;;;;;9.95;100.00;99871.09;5107712;28;20035;-33
2023/04/22 04:06:15;;;;;;;23.30;16.77;;;;;;;9.73;100.00;99862.69;5107755;28;20032;-33
2023/04/22 04:08:41;;;;;;;20.52;14.93;;;;;;;9.70;100.00;99876.44;5107932;28;20488;-33
2023/04/22 04:11:09;;;;;;;14.43;8.38;;;;;;;9.61;100.00;99876.72;5107524;28;20061;-33
2023/04/22 04:13:35;;;;;;;14.90;7.78;;;;;;;9.59;100.00;99876.13;5107743;28;20111;-34
2023/04/22 04:16:00;;;;;;;13.13;7.95;;;;;;;9.53;100.00;99879.63;5107654;28;20764;-34
2023/04/22 04:18:26;;;;;;;13.52;8.82;;;;;;;9.51;100.00;99881.72;5107528;28;20020;-33
2023/04/22 04:20:51;;;;;;;14.70;7.75;;;;;;;9.93;100.00;99889.97;5107945;28;20040;-33
2023/04/22 04:23:17;;;;;;;12.27;7.88;;;;;;;10.27;100.00;99885.13;5107491;28;20471;-33
2023/04/22 04:25:43;;;;;;;12.88;8.27;;;;;;;10.38;100.00;99902.25;5107670;28;20059;-34
2023/04/22 04:28:10;;;;;;;12.27;8.40;;;;;;;9.86;100.00;99883.88;5107418;28;20356;-34
2023/04/22 04:30:36;;;;;;;13.98;8.45;;;;;;;9.96;100.00;99896.72;5107404;28;20059;-33
2023/04/22 04:33:05;;;;;;;13.77;7.80;;;;;;;10.02;100.00;99901.97;5106865;28;20036;-33
2023/04/22 04:35:33;;;;;;;12.85;7.13;;;;;;;9.99;100.00;99902.41;5107452;28;20054;-33
2023/04/22 04:37:59;;;;;;;13.73;8.25;;;;;;;10.13;100.00;99907.63;5107278;28;20034;-34
2023/04/22 04:40:25;;;;;;;12.38;8.13;;;;;;;10.42;100.00;99914.09;5107253;28;20031;-35
2023/04/22 04:42:51;;;;;;;11.48;7.60;;;;;;;10.45;100.00;99919.81;5106040;28;20020;-33
2023/04/22 04:45:18;;;;;;;15.63;9.15;;;;;;;10.77;100.00;99921.53;5099078;28;20031;-34
2023/04/22 04:47:43;;;;;;;12.77;8.68;;;;;;;11.16;100.00;99924.75;5105349;28;20035;-34
2023/04/22 04:50:10;;;;;;;13.07;7.15;;;;;;;11.27;100.00;99916.75;5106782;28;20027;-33
2023/04/22 04:52:36;;;;;;;18.33;8.88;;;;;;;11.67;100.00;99907.34;5106619;28;20023;-34
2023/04/22 04:55:01;;;;;;;18.67;12.15;;;;;;;11.87;100.00;99923.06;5106984;28;20399;-35
2023/04/22 04:57:26;;;;;;;18.13;10.30;;;;;;;11.86;100.00;99926.78;5107007;28;20067;-33
2023/04/22 04:59:52;;;;;;;15.52;10.20;;;;;;;11.83;100.00;99922.72;5106144;28;20032;-35
2023/04/22 05:02:17;;;;;;;15.27;9.32;;;;;;;11.78;100.00;99933.25;5106892;28;20035;-34
2023/04/22 05:04:43;;;;;;;13.50;8.05;;;;;;;11.64;100.00;99931.84;5106689;27;20095;-33
2023/04/22 05:07:08;;;;;;;14.25;7.32;;;;;;;11.29;100.00;99923.75;5106738;27;20089;-34
2023/04/22 05:09:36;;;;;;;11.95;8.10;;;;;;;11.20;100.00;99926.72;5106646;27;20805;-33
2023/04/22 05:12:02;;;;;;;11.43;6.88;;;;;;;11.05;100.00;99897.78;5106498;27;20024;-33
2023/04/22 05:14:28;;;;;;;12.55;7.75;;;;;;;11.50;100.00;99931.22;5106011;27;20043;-33
2023/04/22 05:16:53;;;;;;;9.40;7.03;;;;;;;11.72;100.00;99925.34;5106787;28;20041;-33
2023/04/22 05:19:19;;;;;;;12.00;7.85;;;;;;;11.61;100.00;99926.97;5106384;28;20020;-32
2023/04/22 05:21:44;;;;;;;12.70;9.15;;;;;;;11.66;100.00;99922.53;5106465;27;20015;-33
2023/04/22 05:24:10;;;;;;;15.45;10.13;;;;;;;11.80;100.00;99922.34;5106454;28;20123;-32
2023/04/22 05:26:35;;;;;;;14.75;9.48;;;;;;;11.58;100.00;99925.53;5106021;28;20031;-33
2023/04/22 05:29:00;;;;;;;12.30;9.07;;;;;;;11.48;100.00;99921.81;5106192;28;20072;-33
2023/04/22 05:31:26;;;;;;;14.27;8.48;;;;;;;11.64;100.00;99924.63;5106115;28;20434;-32
2023/04/22 05:33:51;;;;;;;12.52;8.38;;;;;;;11.78;100.00;99924.44;5106467;27;20024;-32
2023/04/22 05:36:17;;;;;;;12.48;8.32;;;;;;;11.97;100.00;99927.84;5105978;28;20019;-31
2023/04/22 05:38:42;;;;;;;15.10;9.13;;;;;;;12.10;100.00;99926.84;5105838;28;20615;-33
2023/04/22 05:41:08;;;;;;;16.15;9.90;;;;;;;12.15;100.00;99918.91;5105865;28;20459;-34
2023/04/22 05:43:33;;;;;;;15.65;9.25;;;;;;;11.88;100.00;99916.66;5105915;27;20023;-33
2023/04/22 05:45:58;;;;;;;14.95;8.32;;;;;;;11.89;100.00;99918.34;5106212;28;20035;-32
2023/04/22 05:48:24;;;;;;;15.82;9.30;;;;;;;11.93;100.00;99924.84;5105543;28;20036;-32
2023/04/22 05:50:49;;;;;;;13.82;8.95;;;;;;;12.14;100.00;99925.31;5106002;27;20117;-33
2023/04/22 05:53:15;;;;;;;17.42;10.63;;;;;;;12.17;100.00;99925.66;5105888;27;20099;-33
2023/04/22 05:55:40;;;;;;;15.60;10.18;;;;;;;12.14;100.00;99920.78;5106064;28;20064;-32
2023/04/22 05:58:06;;;;;;;16.83;11.00;;;;;;;12.31;100.00;99928.09;5105958;28;20047;-32
2023/04/22 06:00:31;;;;;;;15.30;9.70;;;;;;;12.48;100.00;99939.69;5105899;28;20473;-32
2023/04/22 06:02:56;;;;;;;21.10;11.90;;;;;;;12.43;100.00;99929.72;5105797;28;20850;-33
2023/04/22 06:05:22;;;;;;;20.23;11.30;;;;;;;12.22;100.00;99935.66;5105675;28;20047;-32
2023/04/22 06:07:47;;;;;;;20.40;12.88;;;;;;;12.08;100.00;99936.94;5105810;28;20478;-32
2023/04/22 06:10:13;;;;;;;19.70;12.52;;;;;;;12.20;100.00;99929.75;5106240;28;20139;-32
2023/04/22 06:12:38;;;;;;;20.85;12.95;;;;;;;12.24;100.00;99933.56;5109817;28;20027;-33
2023/04/22 06:15:04;;;;;;;21.95;12.70;;;;;;;12.40;100.00;99940.91;5110126;28;20419;-32
2023/04/22 06:17:30;;;;;;;20.42;13.27;;;;;;;12.81;100.00;99943.59;5110173;28;20027;-33
2023/04/22 06:19:55;;;;;;;24.52;14.63;;;;;;;12.83;100.00;99945.00;5109863;28;20028;-33
2023/04/22 06:22:21;;;;;;;25.20;14.13;;;;;;;12.72;100.00;99945.03;5108276;28;20028;-32
2023/04/22 06:24:46;;;;;;;24.17;15.25;;;;;;;13.02;100.00;99956.34;5109821;28;20020;-33
2023/04/22 06:27:12;;;;;;;27.45;15.25;;;;;;;13.10;100.00;99954.34;5109863;28;20028;-33
2023/04/22 06:29:37;;;;;;;26.25;14.93;;;;;;;13.02;100.00;99953.69;5109487;28;20016;-32
2023/04/22 06:32:03;;;;;;;29.33;16.40;;;;;;;13.49;100.00;99947.34;5109522;28;20492;-33
2023/04/22 06:34:28;;;;;;;36.50;18.67;;;;;;;13.65;100.00;99946.56;5109619;28;20096;-34
2023/04/22 06:36:54;;;;;;;33.58;18.58;;;;;;;13.85;100.00;99945.25;5109499;28;20088;-34
2023/04/22 06:39:19;;;;;;;47.88;25.20;;;;;;;13.36;100.00;99951.16;5108958;28;20542;-33
2023/04/22 06:41:45;;;;;;;50.75;26.58;;;;;;;13.76;100.00;99952.09;5109617;28;20016;-33
2023/04/22 06:44:10;;;;;;;46.17;27.08;;;;;;;13.74;100.00;99955.00;5102170;28;20144;-32
2023/04/22 06:46:37;;;;;;;47.20;26.92;;;;;;;13.93;100.00;99946.72;5104145;28;20381;-33
2023/04/22 06:49:03;;;;;;;46.65;28.13;;;;;;;13.97;100.00;99953.22;5108874;28;20028;-32
2023/04/22 06:51:28;;;;;;;55.63;32.55;;;;;;;14.43;100.00;99960.09;5109245;28;20068;-33
2023/04/22 06:53:54;;;;;;;47.45;27.02;;;;;;;14.12;100.00;99956.16;5109130;28;20114;-35
2023/04/22 06:56:19;;;;;;;49.35;29.05;;;;;;;14.27;100.00;99958.25;5109035;28;20228;-32
2023/04/22 06:58:44;;;;;;;48.58;27.20;;;;;;;14.48;100.00;99956.66;5108877;28;20430;-32
2023/04/22 07:01:10;;;;;;;42.05;24.73;;;;;;;14.43;100.00;99965.47;5108642;28;20030;-33
2023/04/22 07:03:35;;;;;;;40.05;24.40;;;;;;;14.46;100.00;99967.69;5109535;28;20028;-35
2023/04/22 07:06:01;;;;;;;39.13;24.55;;;;;;;14.52;100.00;99968.53;5108227;28;20035;-33
2023/04/22 07:08:26;;;;;;;38.30;23.45;;;;;;;14.61;100.00;99975.16;5108445;28;20055;-33
2023/04/22 07:10:52;;;;;;;34.05;22.27;;;;;;;14.73;100.00;99961.63;5108412;28;20799;-33
2023/04/22 07:13:17;;;;;;;39.83;22.95;;;;;;;14.53;100.00;99961.31;5108357;27;20034;-35
2023/04/22 07:15:44;;;;;;;34.33;22.20;;;;;;;14.76;100.00;99974.53;5108695;28;20024;-32
2023/04/22 07:18:10;;;;;;;32.63;21.92;;;;;;;15.01;100.00;99979.41;5108467;28;20028;-33
2023/04/22 07:20:35;;;;;;;28.95;19.55;;;;;;;14.75;100.00;99978.28;5108160;28;20023;-32
2023/04/22 07:23:01;;;;;;;28.63;19.33;;;;;;;15.10;100.00;99966.38;5107370;28;20026;-32
2023/04/22 07:25:26;;;;;;;31.25;20.25;;;;;;;15.51;100.00;99961.41;5108514;28;20027;-32
2023/04/22 07:27:52;;;;;;;28.38;19.17;;;;;;;15.55;100.00;99959.00;5107770;28;20423;-33
2023/04/22 07:30:17;;;;;;;25.35;18.05;;;;;;;15.81;100.00;99966.31;5107923;28;20102;-33
2023/04/22 07:32:42;;;;;;;28.85;19.65;;;;;;;16.04;100.00;99969.72;5107598;28;20052;-33
2023/04/22 07:35:08;;;;;;;38.92;27.17;;;;;;;16.16;99.41;99966.81;5108134;28;20454;-32
2023/04/22 07:37:33;;;;;;;29.27;19.73;;;;;;;16.12;98.04;99976.47;5107906;28;20531;-33
2023/04/22 07:39:59;;;;;;;29.85;20.33;;;;;;;16.17;99.68;99960.38;5108116;28;20028;-32
2023/04/22 07:42:24;;;;;;;28.02;19.85;;;;;;;16.02;100.00;99966.47;5107678;28;20035;-33
2023/04/22 07:44:50;;;;;;;27.23;19.52;;;;;;;16.60;97.00;99971.97;5107698;28;20062;-32
2023/04/22 07:47:15;;;;;;;30.15;19.17;;;;;;;16.62;93.29;99972.50;5107818;28;20561;-33
2023/04/22 07:49:42;;;;;;;28.77;21.45;;;;;;;16.50;95.78;99966.50;5107519;28;20415;-34
2023/04/22 07:52:07;;;;;;;30.70;21.83;;;;;;;16.58;100.00;99968.72;5107941;27;20046;-32
2023/04/22 07:54:33;;;;;;;26.77;20.52;;;;;;;16.51;95.19;99962.72;5106995;28;20424;-33
2023/04/22 07:56:58;;;;;;;30.33;21.85;;;;;;;16.72;97.07;99948.31;5107741;28;20047;-33
2023/04/22 07:59:24;;;;;;;31.42;24.38;;;;;;;17.13;93.73;99964.69;5104857;28;20035;-32
2023/04/22 08:01:49;;;;;;;31.77;22.70;;;;;;;17.51;92.44;99968.00;5108176;28;20023;-35
2023/04/22 08:04:16;;;;;;;32.35;24.45;;;;;;;17.38;96.13;99961.22;5108189;28;20401;-33
2023/04/22 08:06:41;;;;;;;33.30;25.38;;;;;;;17.79;87.97;99963.97;5107587;28;20037;-32
2023/04/22 08:09:07;;;;;;;33.85;25.38;;;;;;;17.39;95.87;99965.56;5108010;28;20019;-34
2023/04/22 08:11:33;;;;;;;30.73;24.90;;;;;;;17.60;96.04;99963.69;5107652;28;20488;-33
2023/04/22 08:13:58;;;;;;;32.72;24.38;;;;;;;17.93;99.00;99961.59;5107776;28;20084;-32
2023/04/22 08:16:23;;;;;;;28.73;22.30;;;;;;;17.44;94.14;99959.34;5107739;28;20065;-32
2023/04/22 08:18:50;;;;;;;30.63;23.60;;;;;;;16.87;99.03;99953.00;5107930;28;20028;-32
2023/04/22 08:21:16;;;;;;;30.27;22.47;;;;;;;16.65;95.35;99953.13;5107663;28;20055;-34
2023/04/22 08:23:41;;;;;;;28.77;22.55;;;;;;;17.09;95.24;99960.09;5107798;28;20421;-32
2023/04/22 08:26:07;;;;;;;29.55;21.15;;;;;;;17.62;94.18;99955.34;5107593;28;20528;-33
2023/04/22 08:28:34;;;;;;;28.00;20.35;;;;;;;17.45;91.34;99961.00;5107497;28;20790;-33
2023/04/22 08:30:59;;;;;;;27.48;19.85;;;;;;;17.60;90.78;99950.22;5107649;28;20109;-33
2023/04/22 08:33:24;;;;;;;26.08;19.88;;;;;;;17.57;88.54;99964.25;5106893;28;20074;-32
2023/04/22 08:35:50;;;;;;;25.00;19.60;;;;;;;17.87;93.90;99951.88;5106782;28;20028;-32
2023/04/22 08:38:15;;;;;;;26.65;20.50;;;;;;;18.09;91.88;99943.50;5107206;28;20024;-33
2023/04/22 08:40:41;;;;;;;26.52;19.88;;;;;;;18.31;86.96;99951.31;5107252;28;20085;-33
2023/04/22 08:43:07;;;;;;;23.45;18.25;;;;;;;18.45;82.13;99941.56;5105199;28;20031;-33
2023/04/22 08:45:33;;;;;;;22.65;15.95;;;;;;;18.34;82.74;99934.53;5096835;28;20035;-33
2023/04/22 08:48:00;;;;;;;18.27;12.93;;;;;;;18.01;87.60;99946.75;5086936;28;20023;-34
2023/04/22 08:50:26;;;;;;;20.00;13.15;;;;;;;18.01;81.45;99944.84;5086517;28;20039;-32
2023/04/22 08:52:52;;;;;;;21.38;15.63;;;;;;;18.03;86.64;99936.50;5086571;28;20028;-32
2023/04/22 08:55:18;;;;;;;20.17;15.18;;;;;;;18.61;89.41;99933.38;5086655;28;20031;-33
2023/04/22 08:57:44;;;;;;;22.63;17.27;;;;;;;18.86;88.83;99940.63;5086650;28;20028;-32
2023/04/22 09:00:10;;;;;;;18.42;12.68;;;;;;;18.24;87.50;99929.97;5086540;28;20566;-32
2023/04/22 09:02:38;;;;;;;22.08;14.07;;;;;;;18.13;90.75;99932.97;5086517;28;20059;-33
2023/04/22 09:05:05;;;;;;;18.15;12.13;;;;;;;18.52;86.07;99921.56;5086732;28;20032;-32
2023/04/22 09:07:31;;;;;;;19.40;13.45;;;;;;;18.97;85.57;99934.09;5086258;28;20040;-33
2023/04/22 09:09:57;;;;;;;18.50;11.98;;;;;;;19.52;85.20;99930.53;5086482;28;20028;-33
2023/04/22 09:12:24;;;;;;;14.88;10.93;;;;;;;19.38;80.47;99922.22;5086176;28;20703;-33
2023/04/22 09:14:51;;;;;;;14.93;11.00;;;;;;;19.38;84.85;99920.34;5086337;28;20039;-34
2023/04/22 09:17:18;;;;;;;13.90;9.63;;;;;;;19.63;75.45;99926.66;5086567;28;20038;-33
2023/04/22 09:19:56;;;;;;;13.57;9.00;;;;;;;18.86;69.67;99908.22;5086296;28;20027;-33
2023/04/22 09:22:21;;;;;;;10.93;7.35;;;;;;;19.24;69.43;99914.72;5086231;28;20097;-33
2023/04/22 09:24:50;;;;;;;15.02;9.10;;;;;;;19.16;73.67;99915.31;5086207;28;20035;-32
2023/04/22 09:27:17;;;;;;;13.73;9.48;;;;;;;18.82;72.97;99910.66;5100604;28;20030;-32
2023/04/22 09:29:51;;;;;;;13.68;9.35;;;;;;;18.86;73.97;99914.41;5106612;28;20032;-32
2023/04/22 09:32:17;;;;;;;12.68;8.70;;;;;;;19.28;68.03;99917.69;5106371;28;20073;-33
2023/04/22 09:34:54;;;;;;;17.33;9.48;;;;;;;19.59;66.57;99899.34;5106537;28;20050;-32
2023/04/22 09:37:26;;;;;;;17.38;10.75;;;;;;;19.74;67.46;99894.97;5106263;28;20495;-32
2023/04/22 09:39:53;;;;;;;15.23;10.52;;;;;;;19.45;68.88;99898.38;5106576;28;20057;-33
2023/04/22 09:42:20;;;;;;;15.45;9.98;;;;;;;19.74;67.16;99874.09;5106241;28;20024;-31
2023/04/22 09:44:53;;;;;;;15.90;10.05;;;;;;;20.02;67.74;99894.16;5106236;28;20081;-32
2023/04/22 09:47:19;;;;;;;13.95;10.60;;;;;;;19.96;71.23;99881.75;5106085;28;20503;-32
2023/04/22 09:49:49;;;;;;;16.65;9.38;;;;;;;19.85;67.71;99891.06;5106449;28;20103;-33
2023/04/22 09:52:23;;;;;;;12.82;8.65;;;;;;;19.86;71.27;99876.44;5105789;28;20106;-32
2023/04/22 09:54:53;;;;;;;11.82;8.52;;;;;;;19.81;66.20;99885.41;5106281;28;20031;-33
2023/04/22 09:57:20;;;;;;;13.52;8.70;;;;;;;20.41;63.85;99881.53;5105814;28;20431;-33
2023/04/22 09:59:45;;;;;;;10.60;7.18;;;;;;;21.08;61.13;99886.94;5105941;28;20500;-34
2023/04/22 10:02:11;;;;;;;12.25;7.57;;;;;;;20.38;64.14;99874.78;5105879;28;20085;-32
2023/04/22 10:04:37;;;;;;;9.93;5.50;;;;;;;21.08;53.29;99886.94;5105991;28;20409;-32
2023/04/22 10:07:02;;;;;;;9.30;6.15;;;;;;;20.90;64.49;99876.88;5106243;28;20082;-33
2023/04/22 10:09:28;;;;;;;11.43;5.53;;;;;;;21.19;58.20;99877.56;5105882;28;20077;-32
2023/04/22 10:11:57;;;;;;;9.70;6.07;;;;;;;20.36;61.58;99852.63;5106036;28;20148;-32
2023/04/22 10:14:23;;;;;;;8.75;6.10;;;;;;;19.69;62.90;99868.69;5105764;28;20097;-32
2023/04/22 10:16:50;;;;;;;11.45;6.80;;;;;;;20.40;62.98;99861.78;5105537;28;20023;-31
2023/04/22 10:19:24;;;;;;;12.50;7.20;;;;;;;20.95;63.69;99857.84;5105742;28;20016;-32
2023/04/22 10:21:55;;;;;;;9.93;6.63;;;;;;;21.13;62.74;99869.81;5105705;28;20043;-32
2023/04/22 10:24:20;;;;;;;7.80;4.88;;;;;;;20.86;56.92;99863.09;5105659;28;20041;-33
2023/04/22 10:26:56;;;;;;;10.00;5.43;;;;;;;21.11;54.73;99870.09;5105882;28;20028;-32
2023/04/22 10:29:23;;;;;;;7.97;5.03;;;;;;;20.79;54.18;99871.59;5105701;28;20131;-32
2023/04/22 10:32:03;;;;;;;8.05;4.97;;;;;;;20.79;55.76;99855.34;5105470;28;20035;-33
2023/04/22 10:34:31;;;;;;;8.95;4.60;;;;;;;21.09;53.46;99869.56;5105551;28;20035;-31
2023/04/22 10:37:20;;;;;;;8.75;4.93;;;;;;;20.80;52.41;99873.22;5105729;28;20024;-33
2023/04/22 10:40:06;;;;;;;8.77;4.82;;;;;;;20.69;53.94;99879.88;5097428;28;20531;-32
2023/04/22 10:42:32;;;;;;;7.72;4.88;;;;;;;20.21;55.64;99871.75;5105606;28;20034;-32
2023/04/22 10:45:02;;;;;;;6.53;4.65;;;;;;;20.05;57.70;99854.88;5101852;28;20027;-32
2023/04/22 10:47:36;;;;;;;7.50;4.32;;;;;;;19.15;55.19;99851.56;5085200;28;20121;-33
2023/04/22 10:50:09;;;;;;;8.82;5.22;;;;;;;19.25;58.53;99856.88;5085124;28;20035;-32
2023/04/22 10:52:35;;;;;;;7.28;4.00;;;;;;;19.10;56.84;99859.69;5085044;28;20083;-32
2023/04/22 10:55:01;;;;;;;7.05;3.80;;;;;;;19.12;58.20;99846.69;5085154;28;20017;-32
2023/04/22 10:57:36;;;;;;;7.78;3.78;;;;;;;19.17;56.26;99852.09;5085912;28;20040;-32
2023/04/22 11:00:19;;;;;;;6.10;3.22;;;;;;;19.00;57.42;99865.16;5088718;28;20849;-32
2023/04/22 11:03:09;;;;;;;9.98;4.13;;;;;;;19.06;56.24;99869.44;5088723;28;20099;-32
2023/04/22 11:05:35;;;;;;;7.53;3.65;;;;;;;19.21;55.26;99872.06;5088833;28;20036;-33
2023/04/22 11:08:05;;;;;;;7.20;3.38;;;;;;;19.04;55.28;99858.94;5088157;28;20043;-32
2023/04/22 11:10:32;;;;;;;6.90;3.65;;;;;;;19.23;53.89;99882.59;5088452;28;20020;-32
2023/04/22 11:13:00;;;;;;;6.80;4.03;;;;;;;19.67;54.69;99879.00;5088165;28;20032;-32
2023/04/22 11:15:26;;;;;;;8.02;3.22;;;;;;;19.60;56.02;99894.75;5088381;28;20032;-32